createdAt,value
2023-04-26T02:15:52.419Z,99.90
2023-04-26T02:18:21.878Z,99.90
2023-04-26T02:20:48.802Z,99.90
2023-04-26T02:23:17.150Z,99.90
2023-04-26T02:25:47.185Z,99.90
2023-04-26T02:28:14.771Z,99.90
2023-04-26T02:30:41.641Z,99.90
2023-04-26T02:33:08.954Z,99.90
2023-04-26T02:35:37.281Z,99.90
2023-04-26T02:38:04.021Z,99.90
2023-04-26T02:40:30.640Z,99.90
2023-04-26T02:42:57.582Z,99.90
2023-04-26T05:37:22.351Z,99.90
2023-04-26T05:39:49.345Z,99.90
2023-04-26T05:42:17.898Z,99.90
2023-04-26T05:44:44.857Z,99.90
2023-04-26T05:47:11.578Z,99.90
2023-04-26T05:49:38.365Z,99.90
2023-04-26T05:52:05.303Z,99.90
2023-04-26T05:54:31.926Z,99.90
2023-04-26T05:56:59.219Z,99.90
2023-04-26T05:59:26.113Z,99.90
2023-04-26T06:01:52.826Z,99.90
2023-04-26T06:04:19.693Z,99.90
2023-04-26T06:06:46.477Z,99.90
2023-04-26T06:09:13.070Z,99.90
2023-04-26T06:11:39.780Z,99.90
2023-04-26T06:14:08.898Z,99.90
2023-04-26T06:16:43.496Z,99.90
2023-04-26T06:19:10.379Z,99.90
2023-04-26T06:21:37.201Z,99.90
2023-04-26T06:24:03.982Z,99.90
2023-04-26T06:26:31.514Z,99.90
2023-04-26T06:28:58.100Z,99.90
2023-04-26T06:33:52.291Z,99.90
2023-04-26T06:36:19.128Z,99.90
2023-04-26T06:38:45.806Z,99.90
2023-04-26T06:41:12.619Z,99.90
2023-04-26T06:43:39.223Z,99.90
2023-04-26T06:46:05.938Z,99.90
2023-04-26T06:48:32.637Z,99.90
2023-04-26T06:55:54.055Z,99.90
2023-04-26T07:32:46.126Z,99.90
2023-04-26T08:34:17.885Z,99.90
2023-04-26T08:36:45.802Z,99.90
2023-04-26T08:39:12.487Z,99.90
2023-04-26T10:26:59.485Z,99.90
2023-04-26T10:29:47.381Z,99.90
2023-04-26T10:32:17.926Z,99.90
2023-04-26T10:34:44.669Z,99.90
2023-04-26T10:37:13.163Z,99.90
2023-04-26T10:39:41.245Z,99.90
2023-04-26T11:20:33.304Z,99.90
2023-04-26T11:23:00.981Z,99.90
2023-04-26T11:25:28.924Z,99.90
2023-04-26T11:28:03.169Z,99.90
2023-04-26T11:30:31.638Z,99.90
2023-04-26T11:33:05.021Z,99.90
2023-04-26T11:35:40.396Z,99.90
2023-04-26T11:38:07.453Z,99.90
2023-04-26T11:40:36.409Z,99.90
2023-04-26T11:43:07.277Z,99.90
2023-04-26T11:45:35.940Z,99.90
2023-04-26T11:48:04.529Z,99.90
2023-04-26T11:50:36.626Z,99.90
2023-04-26T11:53:06.465Z,99.90
2023-04-26T11:55:34.212Z,99.90
2023-04-26T11:58:03.178Z,99.90
2023-04-26T12:00:29.932Z,99.90
2023-04-26T12:02:58.184Z,99.90
2023-04-26T12:05:26.496Z,99.90
2023-04-26T12:07:58.208Z,99.90
2023-04-26T12:10:28.850Z,99.90
2023-04-26T12:12:58.515Z,99.90
2023-04-26T12:15:29.961Z,99.90
2023-04-26T12:18:06.347Z,99.90
2023-04-26T12:20:35.776Z,99.90
2023-04-26T12:23:03.864Z,99.90
2023-04-26T12:25:31.481Z,99.90
2023-04-26T12:27:58.923Z,99.90
2023-04-26T12:30:28.064Z,99.90
2023-04-26T12:33:00.115Z,99.90
2023-04-26T12:35:33.855Z,99.90
2023-04-26T12:38:01.420Z,99.90
2023-04-26T12:40:29.099Z,99.90
2023-04-26T12:42:56.073Z,99.90
2023-04-26T12:45:24.141Z,99.90
2023-04-26T12:47:51.118Z,99.90
2023-04-26T12:50:18.677Z,99.90
2023-04-26T12:52:45.866Z,99.90
2023-04-26T12:55:14.325Z,99.90
2023-04-26T13:24:46.867Z,99.90
2023-04-26T13:29:41.178Z,99.90
2023-04-26T13:32:08.522Z,99.90
2023-04-26T13:34:35.694Z,99.90
2023-04-26T13:37:03.918Z,99.90
2023-04-26T13:39:31.158Z,99.90
2023-04-26T13:41:59.474Z,99.90
2023-04-26T13:44:26.774Z,99.80
2023-04-26T13:46:55.126Z,99.90
2023-04-26T13:49:22.961Z,99.60
2023-04-26T13:51:49.723Z,98.20
2023-04-26T13:54:17.276Z,94.00
2023-04-26T13:56:44.283Z,95.00
2023-04-26T13:59:11.768Z,95.70
2023-04-26T14:01:39.148Z,93.90
2023-04-26T14:04:06.071Z,93.90
2023-04-26T14:09:01.799Z,89.90
2023-04-26T14:11:28.651Z,86.20
2023-04-26T14:13:56.143Z,87.00
2023-04-26T14:16:24.709Z,79.20
2023-04-26T14:18:51.915Z,84.70
2023-04-26T14:21:19.112Z,80.90
2023-04-26T14:23:45.821Z,85.80
2023-04-26T14:26:12.644Z,79.80
2023-04-26T14:28:41.010Z,79.40
2023-04-26T14:31:08.285Z,76.90
2023-04-26T14:33:35.190Z,82.10
2023-04-26T14:36:02.109Z,85.10
2023-04-26T14:38:28.802Z,90.40
2023-04-26T14:40:55.530Z,93.50
2023-04-26T14:43:22.380Z,94.10
2023-04-26T14:45:49.153Z,93.00
2023-04-26T14:48:15.987Z,92.50
2023-04-26T14:50:42.874Z,95.30
2023-04-26T14:53:10.354Z,96.10
2023-04-26T14:55:37.072Z,94.50
2023-04-26T14:58:03.750Z,96.70
2023-04-26T15:00:30.710Z,98.30
2023-04-26T15:02:57.499Z,98.70
2023-04-26T15:05:24.450Z,99.90
2023-04-26T15:07:51.931Z,99.90
2023-04-26T15:10:18.927Z,99.90
2023-04-26T15:12:45.893Z,99.90
2023-04-26T15:15:12.748Z,99.90
2023-04-26T15:17:39.437Z,99.90
2023-04-26T15:20:06.619Z,99.90
2023-04-26T15:22:35.729Z,99.90
2023-04-26T15:25:04.518Z,99.90
2023-04-26T15:27:31.115Z,99.90
2023-04-26T15:44:42.009Z,94.70
2023-04-26T15:47:08.659Z,93.20
2023-04-26T16:11:52.778Z,94.90
2023-04-26T16:14:19.430Z,99.90
2023-04-26T16:16:46.302Z,99.90
2023-04-26T16:19:13.269Z,99.90
2023-04-26T16:21:40.689Z,99.90
2023-04-26T16:24:09.450Z,99.90
2023-04-26T16:26:36.300Z,99.90
2023-04-26T16:29:04.267Z,99.90
2023-04-26T16:31:32.532Z,99.90
2023-04-26T16:33:59.655Z,99.90
2023-04-26T16:36:27.213Z,99.90
2023-04-26T16:38:54.562Z,99.90
2023-04-26T16:41:23.059Z,99.90
2023-04-26T16:43:52.447Z,99.90
2023-04-26T16:46:19.438Z,99.90
2023-04-26T16:48:46.422Z,99.90
2023-04-26T16:51:13.186Z,99.90
2023-04-26T16:53:39.933Z,99.90
2023-04-26T16:56:07.177Z,99.90
2023-04-26T16:58:33.897Z,99.90
2023-04-26T17:01:01.376Z,99.90
2023-04-26T17:03:28.378Z,99.90
2023-04-26T17:05:55.256Z,99.90
2023-04-26T17:08:21.953Z,99.90
2023-04-26T17:15:43.343Z,99.90
2023-04-26T17:18:10.896Z,99.90
2023-04-26T17:20:37.741Z,99.90
2023-04-26T17:25:31.767Z,99.90
2023-04-26T17:27:58.800Z,99.90
2023-04-26T17:30:25.982Z,99.90
2023-04-26T17:32:52.655Z,99.90
2023-04-26T17:35:19.551Z,99.90
2023-04-26T17:37:49.600Z,99.90
2023-04-26T17:40:17.878Z,99.90
2023-04-26T17:42:44.959Z,99.90
2023-04-26T17:45:14.048Z,99.90
2023-04-26T17:47:42.181Z,99.90
2023-04-26T17:50:09.427Z,99.90
2023-04-26T17:52:37.281Z,99.90
2023-04-26T17:55:05.949Z,99.90
2023-04-26T17:57:32.605Z,99.90
2023-04-26T17:59:59.227Z,99.90
2023-04-26T18:02:26.343Z,99.90
2023-04-26T18:04:53.831Z,99.90
2023-04-26T18:07:20.816Z,99.90
2023-04-26T18:09:47.662Z,99.90
2023-04-26T18:12:14.442Z,99.90
2023-04-26T18:14:44.704Z,99.90
2023-04-26T18:17:15.517Z,99.90
2023-04-26T18:19:42.553Z,99.90
2023-04-26T18:22:09.233Z,99.90
2023-04-26T18:24:35.969Z,99.90
2023-04-26T18:27:02.876Z,99.90
2023-04-26T18:29:30.376Z,99.90
2023-04-26T18:31:57.246Z,99.90
2023-04-26T18:34:24.413Z,99.90
2023-04-26T18:36:51.407Z,99.90
2023-04-26T18:39:18.121Z,99.90
2023-04-26T18:41:44.841Z,99.90
2023-04-26T18:44:14.569Z,99.90
2023-04-26T18:46:42.694Z,99.90
2023-04-26T18:49:09.881Z,99.90
2023-04-26T18:51:36.714Z,99.90
2023-04-26T18:54:03.599Z,99.90
2023-04-26T18:56:31.364Z,99.90
2023-04-26T18:58:58.354Z,99.90
2023-04-26T19:01:25.142Z,99.90
2023-04-26T19:03:52.010Z,99.90
2023-04-26T19:06:18.829Z,99.90
2023-04-26T19:16:08.982Z,99.90
2023-04-26T19:18:37.290Z,99.90
2023-04-26T19:21:05.246Z,99.90
2023-04-26T19:23:31.976Z,99.90
2023-04-26T19:26:06.598Z,99.90
2023-04-26T19:28:33.411Z,99.90
2023-04-26T19:31:01.652Z,99.90
2023-04-26T19:33:28.792Z,99.90
2023-04-26T19:35:58.902Z,99.90
2023-04-26T19:38:25.936Z,99.90
2023-04-26T19:40:55.622Z,99.90
2023-04-26T19:43:22.481Z,99.90
2023-04-26T19:45:49.185Z,99.90
2023-04-26T19:48:15.975Z,99.90
2023-04-26T19:50:44.901Z,99.90
2023-04-26T19:53:13.427Z,99.90
2023-04-26T19:55:41.356Z,99.90
2023-04-26T19:58:08.681Z,99.90
2023-04-26T20:00:42.007Z,99.90
2023-04-26T20:03:09.079Z,99.90
2023-04-26T20:05:35.984Z,99.90
2023-04-26T20:08:02.631Z,99.90
2023-04-26T20:10:36.384Z,99.90
2023-04-26T20:13:04.185Z,99.90
2023-04-26T20:15:33.033Z,99.90
2023-04-26T20:18:02.113Z,99.90
2023-04-26T20:20:29.136Z,99.90
2023-04-26T20:22:55.851Z,99.90
2023-04-26T20:25:22.648Z,99.90
2023-04-26T20:27:49.560Z,99.90
2023-04-26T20:30:16.571Z,99.90
2023-04-26T20:32:44.140Z,99.90
2023-04-26T20:35:12.935Z,99.90
2023-04-26T20:37:39.889Z,99.90
2023-04-26T20:40:07.120Z,99.90
2023-04-26T20:42:33.754Z,99.90
2023-04-26T20:45:02.283Z,99.90
2023-04-26T20:47:29.516Z,99.90
2023-04-26T20:49:56.558Z,99.90
2023-04-26T20:52:23.167Z,99.90
2023-04-26T20:54:50.009Z,99.90
2023-04-26T20:57:16.856Z,99.90
2023-04-26T20:59:43.480Z,99.90
2023-04-26T21:02:12.585Z,99.90
2023-04-26T21:04:41.667Z,99.90
2023-04-26T21:07:11.702Z,99.90
2023-04-26T21:09:38.840Z,99.90
2023-04-26T21:12:06.589Z,99.90
2023-04-26T21:14:33.205Z,99.90
2023-04-26T21:17:01.132Z,99.90
2023-04-26T21:19:27.887Z,99.90
2023-04-26T21:21:54.490Z,99.90
2023-04-26T21:24:21.204Z,99.90
2023-04-26T21:26:47.853Z,99.90
2023-04-26T21:29:14.452Z,99.90
2023-04-26T21:31:41.197Z,99.90
2023-04-26T21:34:07.857Z,99.90
2023-04-26T21:36:34.456Z,99.90
2023-04-26T21:39:01.383Z,99.90
2023-04-26T21:41:28.270Z,99.90
2023-04-26T21:43:55.921Z,99.90
2023-04-26T21:46:22.715Z,99.90
2023-04-26T21:48:49.438Z,99.90
2023-04-26T21:51:16.062Z,99.90
2023-04-26T21:53:43.464Z,99.90
2023-04-26T21:56:10.135Z,99.90
2023-04-26T21:58:36.758Z,99.90
2023-04-26T22:01:16.496Z,99.90
2023-04-26T22:03:43.405Z,99.90
2023-04-26T22:06:10.930Z,99.90
2023-04-26T22:08:38.448Z,99.90
2023-04-26T22:11:05.203Z,99.90
2023-04-26T22:13:32.266Z,99.90
2023-04-26T22:15:58.964Z,99.90
2023-04-26T22:18:29.230Z,99.90
2023-04-26T22:20:56.026Z,99.90
2023-04-26T22:23:22.697Z,99.90
2023-04-26T22:25:49.421Z,99.90
2023-04-26T22:28:16.521Z,99.90
2023-04-26T22:30:43.174Z,99.90
2023-04-26T22:33:10.999Z,99.90
2023-04-26T22:35:38.029Z,99.90
2023-04-26T22:38:04.621Z,99.90
2023-04-26T22:40:32.217Z,99.90
2023-04-26T22:42:58.851Z,99.90
2023-04-26T22:45:25.869Z,99.90
2023-04-26T22:47:52.563Z,99.90
2023-04-26T22:50:19.282Z,99.90
2023-04-26T22:52:45.963Z,99.90
2023-04-26T22:55:12.707Z,99.90
2023-04-26T22:57:39.313Z,99.90
2023-04-26T23:00:09.693Z,99.90
2023-04-26T23:02:36.496Z,99.90
2023-04-26T23:05:05.067Z,99.90
2023-04-26T23:07:33.355Z,99.90
2023-04-26T23:10:00.063Z,99.90
2023-04-26T23:12:27.796Z,99.90
2023-04-26T23:14:58.315Z,99.90
2023-04-26T23:17:28.392Z,99.90
2023-04-26T23:19:55.027Z,99.90
2023-04-26T23:22:21.726Z,99.90
2023-04-26T23:24:48.379Z,99.90
2023-04-26T23:27:15.107Z,99.90
2023-04-26T23:29:41.734Z,99.90
2023-04-26T23:32:08.375Z,99.90
2023-04-26T23:34:34.973Z,99.90
2023-04-26T23:37:07.500Z,99.90
2023-04-26T23:39:35.754Z,99.90
2023-04-26T23:42:02.576Z,99.90
2023-04-26T23:44:29.290Z,99.90
2023-04-26T23:46:56.097Z,99.90
2023-04-26T23:49:22.935Z,99.90
2023-04-26T23:51:49.980Z,99.90
2023-04-26T23:54:16.622Z,99.90
2023-04-26T23:56:43.205Z,99.90
2023-04-26T23:59:09.808Z,99.90
